Time;durP1;ratioP1;P1;durP2;ratioP2;P2;SDS_P1;SDS_P2;PMS_P1;PMS_P2;Temp;Humidity;BMP_temperature;BMP_pressure;BME280_temperature;BME280_humidity;BME280_pressure;Samples;Min_cycle;Max_cycle;Signal;HPM_P1;HPM_P2
2023/03/31 00:02:12;;;;;;;36.40;6.75;;;10.10;99.90;;;;;;5035827;28;20073;-67
2023/03/31 00:04:44;;;;;;;23.58;6.93;;;10.70;99.90;;;;;;5032977;28;20042;-67
2023/03/31 00:07:13;;;;;;;31.23;6.90;;;10.70;99.90;;;;;;5032760;28;20399;-67
2023/03/31 00:09:40;;;;;;;25.13;5.80;;;10.50;99.90;;;;;;5039017;28;20494;-66
2023/03/31 00:12:06;;;;;;;25.05;7.03;;;10.50;99.90;;;;;;5033498;28;20048;-67
2023/03/31 00:14:33;;;;;;;27.27;8.20;;;;;;;;;;5036133;28;20444;-67
2023/03/31 00:17:00;;;;;;;22.15;5.57;;;;;;;;;;5033515;28;20041;-66
2023/03/31 00:19:27;;;;;;;28.45;8.07;;;;;;;;;;5028681;28;20044;-67
2023/03/31 00:21:53;;;;;;;32.08;8.90;;;10.40;99.90;;;;;;5026019;28;20041;-67
2023/03/31 00:24:19;;;;;;;28.92;5.88;;;10.10;99.90;;;;;;5027547;28;20049;-67
2023/03/31 00:26:44;;;;;;;27.55;5.72;;;9.90;99.90;;;;;;5027337;28;20033;-67
2023/03/31 00:29:12;;;;;;;23.08;6.35;;;10.30;99.90;;;;;;5028133;28;20143;-67
2023/03/31 00:31:38;;;;;;;29.02;6.50;;;10.30;99.90;;;;;;5036561;28;20045;-66
2023/03/31 00:34:04;;;;;;;33.00;6.07;;;10.70;99.90;;;;;;5038807;28;20036;-67
2023/03/31 00:36:30;;;;;;;32.42;6.07;;;10.60;99.90;;;;;;5030774;28;20116;-67
2023/03/31 00:38:59;;;;;;;30.38;6.97;;;10.50;99.90;;;;;;5034969;28;20041;-66
2023/03/31 00:41:26;;;;;;;28.17;6.25;;;10.20;99.90;;;;;;5027192;28;20510;-67
2023/03/31 00:44:07;;;;;;;31.38;6.95;;;10.60;99.90;;;;;;5030436;28;20034;-66
2023/03/31 00:46:40;;;;;;;28.30;7.57;;;9.80;99.90;;;;;;5032446;28;20472;-67
2023/03/31 00:49:13;;;;;;;27.70;7.50;;;10.20;1.00;;;;;;5037376;28;20041;-66
2023/03/31 00:51:39;;;;;;;29.65;6.40;;;10.30;99.90;;;;;;5033081;28;20075;-67
2023/03/31 00:54:07;;;;;;;29.48;7.43;;;10.10;1.00;;;;;;5039723;28;20052;-66
2023/03/31 00:56:36;;;;;;;26.15;5.78;;;10.10;1.00;;;;;;5031456;28;20072;-67
2023/03/31 00:59:06;;;;;;;27.45;6.10;;;9.60;1.00;;;;;;5037633;28;20029;-67
2023/03/31 01:01:34;;;;;;;31.33;6.43;;;9.70;1.00;;;;;;5032159;28;20045;-67
2023/03/31 01:04:01;;;;;;;23.35;5.75;;;9.40;1.00;;;;;;5030817;28;20092;-67
2023/03/31 01:06:29;;;;;;;27.38;6.35;;;9.90;1.80;;;;;;5027709;28;20041;-67
2023/03/31 01:08:56;;;;;;;21.88;5.40;;;10.00;20.80;;;;;;5034116;28;20033;-67
2023/03/31 01:11:26;;;;;;;19.90;6.22;;;9.50;51.00;;;;;;5031925;28;20037;-66
2023/03/31 01:13:55;;;;;;;26.15;5.65;;;9.20;71.60;;;;;;5016715;28;20060;-66
2023/03/31 01:16:21;;;;;;;34.38;7.15;;;9.40;98.60;;;;;;5030297;28;20049;-67
2023/03/31 01:18:48;;;;;;;32.22;6.90;;;9.40;98.40;;;;;;5031817;28;20033;-66
2023/03/31 01:21:41;;;;;;;22.27;5.93;;;9.20;99.40;;;;;;5029677;28;20403;-66
2023/03/31 01:24:19;;;;;;;30.00;6.28;;;9.00;99.90;;;;;;5029465;28;20041;-67
2023/03/31 01:27:00;;;;;;;34.47;6.90;;;;;;;;;;5033089;28;20059;-67
2023/03/31 01:29:47;;;;;;;26.45;5.97;;;9.40;99.90;;;;;;5036969;28;20069;-67
2023/03/31 01:32:16;;;;;;;26.80;7.63;;;9.10;99.90;;;;;;5032398;28;20048;-67
2023/03/31 01:35:00;;;;;;;28.73;6.80;;;9.60;99.90;;;;;;5030658;28;20034;-67
2023/03/31 01:38:01;;;;;;;28.45;6.45;;;9.40;99.90;;;;;;5038730;28;20119;-67
2023/03/31 01:40:54;;;;;;;25.75;7.80;;;9.00;99.90;;;;;;4992080;28;20049;-67
2023/03/31 01:43:32;;;;;;;23.80;5.78;;;9.30;99.90;;;;;;5034832;28;20051;-67
2023/03/31 01:46:18;;;;;;;22.55;5.85;;;9.80;99.90;;;;;;5037605;28;20048;-66
2023/03/31 01:48:59;;;;;;;21.38;6.07;;;9.30;99.90;;;;;;5025304;28;20099;-66
2023/03/31 01:51:46;;;;;;;33.60;7.88;;;9.00;99.90;;;;;;5036469;28;20060;-67
2023/03/31 01:54:20;;;;;;;25.65;6.18;;;9.10;99.90;;;;;;5037227;28;20045;-67
2023/03/31 01:56:52;;;;;;;29.27;6.18;;;;;;;;;;5034212;28;20527;-67
2023/03/31 01:59:42;;;;;;;25.60;5.53;;;9.10;99.90;;;;;;5035121;28;20104;-67
2023/03/31 02:02:20;;;;;;;20.65;5.90;;;9.50;99.90;;;;;;5033044;28;20050;-67
2023/03/31 02:04:48;;;;;;;22.40;5.93;;;;;;;;;;5035731;28;20124;-67
2023/03/31 02:07:23;;;;;;;25.08;5.60;;;9.40;99.90;;;;;;5036987;28;20037;-67
2023/03/31 02:09:55;;;;;;;23.88;6.95;;;9.70;99.90;;;;;;5037569;28;20049;-67
2023/03/31 02:12:25;;;;;;;23.15;5.00;;;9.50;99.90;;;;;;5035351;28;20037;-67
2023/03/31 02:14:53;;;;;;;24.83;5.80;;;10.10;99.90;;;;;;5036415;28;20037;-67
2023/03/31 02:17:31;;;;;;;23.67;5.70;;;9.90;99.90;;;;;;5039230;28;20485;-67
2023/03/31 02:20:05;;;;;;;20.17;4.95;;;9.30;99.90;;;;;;5040935;28;20033;-67
2023/03/31 02:22:36;;;;;;;27.58;6.05;;;9.80;99.90;;;;;;5041476;28;20083;-67
2023/03/31 02:25:04;;;;;;;26.67;4.82;;;9.40;99.90;;;;;;5039407;28;20376;-67
2023/03/31 02:27:39;;;;;;;22.63;5.65;;;9.70;99.90;;;;;;5038355;28;20067;-67
2023/03/31 02:30:06;;;;;;;27.35;5.05;;;10.20;99.90;;;;;;5039291;28;20037;-67
2023/03/31 02:32:40;;;;;;;21.77;5.78;;;9.70;99.90;;;;;;5034058;28;20040;-67
2023/03/31 02:35:10;;;;;;;38.92;6.68;;;9.60;99.90;;;;;;5039330;28;20517;-67
2023/03/31 02:37:38;;;;;;;20.02;4.30;;;10.30;99.90;;;;;;5038704;28;20551;-67
2023/03/31 02:40:14;;;;;;;19.58;5.10;;;9.60;99.90;;;;;;5034403;28;20038;-67
2023/03/31 02:42:41;;;;;;;25.80;5.68;;;10.00;99.90;;;;;;5041811;28;20376;-67
2023/03/31 02:45:35;;;;;;;21.00;5.88;;;10.40;99.90;;;;;;5031596;28;20048;-67
2023/03/31 02:48:01;;;;;;;25.55;4.88;;;9.70;99.90;;;;;;5036086;28;20042;-66
2023/03/31 02:50:33;;;;;;;20.52;4.53;;;9.30;99.90;;;;;;5035407;28;20037;-67
2023/03/31 02:53:19;;;;;;;18.67;5.00;;;10.20;99.90;;;;;;5035052;28;20033;-67
2023/03/31 02:55:56;;;;;;;22.88;4.45;;;10.20;99.90;;;;;;5036536;28;20145;-67
2023/03/31 02:58:27;;;;;;;17.90;4.70;;;;;;;;;;5037432;28;20034;-67
2023/03/31 03:01:28;;;;;;;21.65;5.43;;;9.50;99.90;;;;;;5034261;28;20041;-67
2023/03/31 03:04:08;;;;;;;18.52;4.90;;;10.20;99.90;;;;;;4964365;28;20060;-67
2023/03/31 03:06:52;;;;;;;19.52;4.95;;;10.20;99.90;;;;;;5033715;28;20046;-67
2023/03/31 03:09:36;;;;;;;14.93;4.03;;;9.40;99.90;;;;;;5038541;28;20036;-67
2023/03/31 03:12:08;;;;;;;23.80;4.97;;;;;;;;;;5033881;28;20388;-66
2023/03/31 03:14:58;;;;;;;20.27;4.60;;;9.60;99.90;;;;;;5040224;28;20033;-67
2023/03/31 03:17:32;;;;;;;28.75;5.63;;;9.20;99.90;;;;;;5039788;28;20029;-67
2023/03/31 03:20:00;;;;;;;27.45;5.70;;;10.00;99.90;;;;;;5029343;28;20208;-67
2023/03/31 03:22:27;;;;;;;20.05;5.40;;;;;;;;;;5038402;28;20098;-66
2023/03/31 03:24:52;;;;;;;20.63;5.07;;;9.40;99.90;;;;;;5033350;28;20043;-67
2023/03/31 03:27:21;;;;;;;19.73;5.32;;;9.30;99.90;;;;;;5026117;28;20506;-67
2023/03/31 03:29:47;;;;;;;24.75;5.20;;;10.20;99.90;;;;;;5028136;28;20048;-67
2023/03/31 03:32:13;;;;;;;23.00;4.63;;;9.70;99.90;;;;;;5031023;28;20037;-67
2023/03/31 03:34:39;;;;;;;24.38;5.85;;;10.10;99.90;;;;;;5032844;28;20039;-67
2023/03/31 03:37:05;;;;;;;17.85;4.63;;;10.00;99.90;;;;;;5036884;28;20030;-67
2023/03/31 03:39:31;;;;;;;20.10;5.30;;;9.70;99.90;;;;;;5098053;22;20626;-68
2023/03/31 03:41:57;;;;;;;21.73;5.57;;;9.40;99.90;;;;;;4997769;28;20044;-67
2023/03/31 03:44:22;;;;;;;18.92;5.70;;;9.30;99.90;;;;;;5002898;28;20042;-70
2023/03/31 03:46:48;;;;;;;17.80;5.47;;;10.00;99.90;;;;;;4999157;28;20081;-68
2023/03/31 03:49:14;;;;;;;19.55;4.85;;;9.90;99.90;;;;;;5004387;28;20034;-67
2023/03/31 03:51:39;;;;;;;25.65;6.22;;;10.20;99.90;;;;;;4999899;28;20108;-67
2023/03/31 03:54:05;;;;;;;17.77;4.90;;;10.00;99.90;;;;;;4998411;28;20035;-67
2023/03/31 03:56:30;;;;;;;21.77;5.43;;;9.60;99.90;;;;;;5005731;28;20439;-67
2023/03/31 03:58:56;;;;;;;18.67;5.82;;;9.30;99.90;;;;;;5002142;28;20041;-67
2023/03/31 04:01:22;;;;;;;23.70;6.15;;;9.80;99.90;;;;;;4999855;28;20069;-67
2023/03/31 04:03:48;;;;;;;20.35;5.22;;;9.30;99.90;;;;;;4998662;28;20548;-69
2023/03/31 04:06:14;;;;;;;20.20;5.18;;;9.50;99.90;;;;;;5005198;28;20408;-67
2023/03/31 04:08:40;;;;;;;18.23;5.93;;;9.70;99.90;;;;;;5004439;28;20064;-67
2023/03/31 04:11:16;;;;;;;13.90;5.78;;;;;;;;;;5102885;22;20506;-66
2023/03/31 04:13:43;;;;;;;23.95;6.75;;;9.60;99.90;;;;;;5036767;28;20072;-65
2023/03/31 04:16:09;;;;;;;25.58;7.00;;;9.20;99.90;;;;;;5038782;28;20025;-65
2023/03/31 04:18:36;;;;;;;18.98;6.32;;;9.50;99.90;;;;;;5042918;28;20075;-65
2023/03/31 04:21:05;;;;;;;18.40;6.30;;;10.10;1.00;;;;;;5034508;28;20064;-65
2023/03/31 04:23:32;;;;;;;20.38;6.00;;;9.70;1.00;;;;;;5037771;28;20558;-65
2023/03/31 04:25:58;;;;;;;15.20;6.38;;;9.20;1.00;;;;;;5037630;28;20632;-65
2023/03/31 04:28:25;;;;;;;17.55;6.72;;;9.20;1.00;;;;;;5039302;28;20029;-65
2023/03/31 04:30:53;;;;;;;15.32;6.50;;;10.10;1.00;;;;;;5041801;28;20041;-66
2023/03/31 04:33:20;;;;;;;16.08;6.68;;;9.50;1.00;;;;;;5038891;28;20033;-66
2023/03/31 04:35:48;;;;;;;16.35;6.93;;;9.40;1.00;;;;;;5037738;28;20072;-66
2023/03/31 04:38:22;;;;;;;19.90;6.90;;;9.30;1.00;;;;;;5037675;28;20045;-66
2023/03/31 04:40:49;;;;;;;20.38;6.63;;;;;;;;;;5036815;28;20047;-66
2023/03/31 04:43:16;;;;;;;16.08;6.45;;;9.60;1.00;;;;;;5039864;28;20405;-67
2023/03/31 04:45:42;;;;;;;22.50;7.53;;;9.80;1.00;;;;;;5041200;28;20483;-67
2023/03/31 04:48:08;;;;;;;20.70;7.30;;;10.20;1.00;;;;;;5037762;28;20086;-65
2023/03/31 04:50:34;;;;;;;18.67;7.88;;;10.20;1.00;;;;;;5035074;28;20063;-67
2023/03/31 04:53:00;;;;;;;22.52;7.25;;;10.20;1.00;;;;;;5037070;28;20041;-68
2023/03/31 04:55:26;;;;;;;21.08;7.93;;;9.50;1.00;;;;;;5034203;28;20037;-68
2023/03/31 04:57:52;;;;;;;19.90;7.70;;;;;;;;;;5035983;28;20033;-67
2023/03/31 05:00:18;;;;;;;19.25;7.30;;;9.90;1.00;;;;;;5036219;28;20056;-68
2023/03/31 05:02:44;;;;;;;19.88;6.80;;;9.60;1.00;;;;;;5034214;28;20055;-67
2023/03/31 05:05:10;;;;;;;17.80;6.65;;;10.10;1.00;;;;;;5036271;28;20044;-67
2023/03/31 05:07:36;;;;;;;21.38;7.18;;;;;;;;;;5031850;28;20069;-67
2023/03/31 05:10:02;;;;;;;20.15;7.78;;;;;;;;;;5032309;28;20560;-67
2023/03/31 05:12:28;;;;;;;15.55;7.10;;;10.20;17.70;;;;;;5039603;28;20414;-67
2023/03/31 05:14:53;;;;;;;19.05;7.10;;;9.50;25.90;;;;;;5033757;28;20037;-67
2023/03/31 05:17:20;;;;;;;15.38;6.80;;;10.40;62.60;;;;;;5048372;28;20150;-67
2023/03/31 05:19:45;;;;;;;21.95;7.68;;;9.50;64.80;;;;;;5047638;28;20037;-65
2023/03/31 05:22:11;;;;;;;19.13;7.13;;;10.30;83.40;;;;;;5017243;28;20056;-65
2023/03/31 05:24:37;;;;;;;16.83;7.68;;;9.90;87.30;;;;;;5037587;28;20090;-65
2023/03/31 05:27:02;;;;;;;18.20;7.00;;;9.40;90.70;;;;;;5025409;28;20132;-65
2023/03/31 05:29:28;;;;;;;21.40;7.45;;;10.00;98.20;;;;;;5045173;28;20505;-65
2023/03/31 05:31:54;;;;;;;21.65;7.72;;;9.90;99.90;;;;;;5045998;28;20368;-66
2023/03/31 05:34:20;;;;;;;19.67;7.65;;;10.10;99.90;;;;;;5048431;28;20048;-65
2023/03/31 05:36:49;;;;;;;17.17;7.78;;;;;;;;;;5048097;28;20485;-65
2023/03/31 05:39:15;;;;;;;21.08;7.28;;;10.40;99.90;;;;;;5047552;28;20544;-65
2023/03/31 05:41:40;;;;;;;19.58;6.82;;;9.40;99.90;;;;;;5048717;28;20045;-65
2023/03/31 05:44:06;;;;;;;16.65;7.10;;;9.80;99.90;;;;;;5048206;28;20102;-65
2023/03/31 05:46:31;;;;;;;16.50;6.70;;;10.10;99.90;;;;;;5044374;28;20466;-65
2023/03/31 05:48:57;;;;;;;16.38;6.32;;;10.30;99.90;;;;;;5046319;28;20033;-65
2023/03/31 05:51:23;;;;;;;14.52;7.30;;;9.80;99.90;;;;;;5043697;28;20052;-65
2023/03/31 05:53:49;;;;;;;15.77;7.32;;;10.10;99.90;;;;;;5044020;28;20410;-65
2023/03/31 05:56:15;;;;;;;16.38;7.53;;;9.50;99.90;;;;;;5046783;28;20033;-65
2023/03/31 05:58:41;;;;;;;18.30;7.25;;;10.40;99.90;;;;;;5039851;28;20110;-65
2023/03/31 06:01:13;;;;;;;17.88;7.18;;;10.20;99.90;;;;;;5043875;28;20040;-65
2023/03/31 06:03:40;;;;;;;21.65;8.27;;;10.20;99.90;;;;;;5047136;28;20045;-65
2023/03/31 06:06:07;;;;;;;15.60;6.45;;;;;;;;;;5048526;28;20033;-65
2023/03/31 06:08:34;;;;;;;15.13;6.90;;;9.50;99.90;;;;;;5047740;28;20044;-66
2023/03/31 06:11:02;;;;;;;13.77;6.40;;;9.70;99.90;;;;;;5047108;28;20078;-66
2023/03/31 06:13:28;;;;;;;14.35;7.00;;;10.00;99.90;;;;;;5046805;28;20514;-65
2023/03/31 06:15:55;;;;;;;17.20;7.43;;;;;;;;;;5048627;28;20041;-66
2023/03/31 06:18:20;;;;;;;17.35;7.07;;;10.20;99.90;;;;;;5048368;28;20040;-66
2023/03/31 06:20:46;;;;;;;17.42;7.43;;;9.70;99.90;;;;;;5048734;28;20064;-66
2023/03/31 06:23:11;;;;;;;19.73;7.55;;;10.50;99.90;;;;;;5046846;28;20053;-66
2023/03/31 06:25:37;;;;;;;15.45;7.10;;;9.80;99.90;;;;;;5047542;28;20033;-66
2023/03/31 06:28:05;;;;;;;19.10;8.30;;;;;;;;;;5040366;28;20045;-67
2023/03/31 06:30:31;;;;;;;21.70;7.97;;;9.90;99.90;;;;;;5046711;28;20155;-67
2023/03/31 06:32:56;;;;;;;14.65;6.78;;;10.10;99.90;;;;;;5048314;28;20076;-66
2023/03/31 06:35:22;;;;;;;16.85;7.65;;;10.10;99.90;;;;;;5046915;28;20174;-66
2023/03/31 06:37:47;;;;;;;20.15;7.35;;;9.70;99.90;;;;;;5043075;28;20045;-65
2023/03/31 06:40:13;;;;;;;16.48;6.93;;;10.20;99.90;;;;;;5048043;28;20036;-65
2023/03/31 06:42:39;;;;;;;18.33;7.57;;;10.50;99.90;;;;;;5048149;28;20079;-65
2023/03/31 06:45:05;;;;;;;13.32;6.40;;;10.50;99.90;;;;;;5048049;28;20037;-65
2023/03/31 06:47:31;;;;;;;17.42;6.57;;;9.60;99.90;;;;;;5046114;28;20123;-65
2023/03/31 06:49:56;;;;;;;11.32;6.18;;;10.20;99.90;;;;;;5048225;28;20119;-65
2023/03/31 06:52:22;;;;;;;17.40;5.82;;;10.60;99.90;;;;;;5045476;28;20124;-65
2023/03/31 06:54:47;;;;;;;14.07;5.72;;;10.20;99.90;;;;;;5048091;28;20052;-65
2023/03/31 06:57:13;;;;;;;11.23;5.28;;;9.60;99.90;;;;;;5028049;28;20037;-65
2023/03/31 06:59:39;;;;;;;10.85;5.40;;;10.70;99.90;;;;;;5047731;28;20041;-65
2023/03/31 07:02:04;;;;;;;12.63;5.65;;;10.10;99.90;;;;;;5049669;28;21330;-65
2023/03/31 07:04:30;;;;;;;10.93;4.40;;;9.80;99.90;;;;;;5051812;28;20041;-65
2023/03/31 07:06:58;;;;;;;8.77;4.18;;;10.30;99.90;;;;;;5050757;28;20056;-65
2023/03/31 07:09:24;;;;;;;9.95;4.85;;;9.90;99.90;;;;;;5050210;28;20077;-67
2023/03/31 07:11:49;;;;;;;10.88;5.28;;;9.90;99.90;;;;;;5049791;28;20079;-65
2023/03/31 07:14:15;;;;;;;9.13;4.07;;;10.60;99.90;;;;;;5047291;28;20464;-65
2023/03/31 07:16:41;;;;;;;9.23;4.22;;;10.60;99.90;;;;;;5048068;28;20045;-65
2023/03/31 07:19:09;;;;;;;10.40;4.88;;;10.10;99.90;;;;;;5050865;28;20037;-65
2023/03/31 07:21:36;;;;;;;11.15;4.20;;;10.60;99.90;;;;;;5046526;28;20414;-64
2023/03/31 07:24:01;;;;;;;8.50;3.72;;;10.70;99.90;;;;;;5051557;28;20041;-64
2023/03/31 07:26:27;;;;;;;10.93;3.60;;;10.30;99.90;;;;;;5049735;28;20049;-64
2023/03/31 07:28:55;;;;;;;12.27;4.47;;;10.30;99.90;;;;;;5051167;28;20044;-65
2023/03/31 07:31:21;;;;;;;8.73;4.10;;;10.80;99.90;;;;;;5049805;28;20052;-64
2023/03/31 07:33:47;;;;;;;9.57;3.80;;;10.40;99.90;;;;;;5052079;28;20033;-64
2023/03/31 07:36:13;;;;;;;10.10;4.10;;;10.50;99.90;;;;;;5033524;28;20120;-64
2023/03/31 07:38:40;;;;;;;9.15;4.82;;;10.00;99.90;;;;;;5033422;28;20036;-64
2023/03/31 07:41:09;;;;;;;8.50;3.50;;;10.40;99.90;;;;;;5050765;28;20045;-64
2023/03/31 07:43:35;;;;;;;7.97;3.00;;;10.50;99.90;;;;;;5045001;28;20040;-64
2023/03/31 07:46:00;;;;;;;11.10;4.03;;;10.40;99.90;;;;;;5046944;28;20132;-64
2023/03/31 07:48:27;;;;;;;12.35;3.90;;;10.20;99.90;;;;;;5050441;28;20417;-65
2023/03/31 07:50:53;;;;;;;9.13;3.97;;;10.60;99.90;;;;;;5050654;28;20455;-64
2023/03/31 07:53:19;;;;;;;8.98;3.70;;;10.50;99.90;;;;;;5050582;28;20039;-64
2023/03/31 07:55:46;;;;;;;9.32;4.28;;;10.30;99.90;;;;;;5050915;28;20426;-64
2023/03/31 07:58:12;;;;;;;10.70;4.47;;;10.50;99.90;;;;;;5049307;28;20090;-65
2023/03/31 08:00:38;;;;;;;12.02;4.05;;;10.40;99.90;;;;;;5051425;28;20251;-64
2023/03/31 08:03:04;;;;;;;10.85;4.25;;;10.30;99.90;;;;;;5050507;28;20041;-64
2023/03/31 08:05:30;;;;;;;9.32;3.97;;;10.30;99.90;;;;;;5051273;28;20037;-67
2023/03/31 08:07:55;;;;;;;10.43;4.45;;;9.90;99.90;;;;;;5051122;28;20099;-64
2023/03/31 08:10:24;;;;;;;11.27;3.95;;;10.20;99.90;;;;;;5050013;28;20033;-64
2023/03/31 08:12:50;;;;;;;9.18;4.05;;;10.30;99.90;;;;;;5050600;28;20064;-64
2023/03/31 08:15:16;;;;;;;10.70;4.43;;;10.30;99.90;;;;;;5042598;28;20494;-64
2023/03/31 08:17:42;;;;;;;9.57;4.50;;;10.40;99.90;;;;;;5048723;28;20045;-64
2023/03/31 08:20:09;;;;;;;10.88;4.88;;;10.30;99.90;;;;;;5048315;28;20048;-64
2023/03/31 08:22:36;;;;;;;10.10;4.40;;;10.40;99.90;;;;;;5049841;28;20041;-64
2023/03/31 08:25:02;;;;;;;11.93;4.57;;;;;;;;;;5050192;28;20037;-64
2023/03/31 08:27:28;;;;;;;10.88;5.10;;;9.80;99.90;;;;;;5047230;28;20039;-64
2023/03/31 08:29:53;;;;;;;12.15;4.95;;;10.00;99.90;;;;;;5050045;28;20033;-64
2023/03/31 08:32:22;;;;;;;10.50;5.05;;;10.50;99.90;;;;;;5048897;28;20036;-64
2023/03/31 08:34:48;;;;;;;9.20;4.10;;;10.40;99.90;;;;;;5049654;28;20368;-64
2023/03/31 08:37:14;;;;;;;11.90;4.55;;;10.60;99.90;;;;;;5045072;28;20047;-64
2023/03/31 08:39:40;;;;;;;10.23;4.88;;;9.80;99.90;;;;;;5045892;28;20043;-64
2023/03/31 08:42:21;;;;;;;10.95;5.20;;;10.20;99.90;;;;;;5043130;28;20130;-64
2023/03/31 08:45:15;;;;;;;12.50;5.38;;;10.50;99.90;;;;;;5044483;28;20044;-64
2023/03/31 08:47:42;;;;;;;11.20;6.28;;;10.60;99.90;;;;;;5044011;28;20044;-64
2023/03/31 08:50:14;;;;;;;11.98;5.35;;;10.60;99.90;;;;;;5049355;28;20072;-64
2023/03/31 08:52:48;;;;;;;13.30;5.38;;;10.60;99.90;;;;;;5044599;28;20044;-64
2023/03/31 08:55:24;;;;;;;11.25;5.55;;;10.70;99.90;;;;;;5029569;28;20128;-64
2023/03/31 08:58:02;;;;;;;14.73;5.65;;;10.10;99.90;;;;;;5043237;28;20598;-64
2023/03/31 09:00:37;;;;;;;12.48;5.40;;;10.80;99.90;;;;;;5049001;28;20087;-64
2023/03/31 09:03:13;;;;;;;9.35;4.50;;;10.80;99.90;;;;;;5048322;28;20041;-64
2023/03/31 09:06:00;;;;;;;13.85;5.53;;;11.40;99.90;;;;;;5029210;28;20045;-64
2023/03/31 09:08:37;;;;;;;9.20;5.03;;;11.30;99.90;;;;;;5047707;28;20502;-64
2023/03/31 09:11:31;;;;;;;9.70;5.22;;;10.80;99.90;;;;;;5048920;28;20383;-64
2023/03/31 09:14:19;;;;;;;9.75;5.40;;;11.00;99.90;;;;;;5044182;28;20044;-65
2023/03/31 09:17:12;;;;;;;13.82;5.18;;;11.30;99.90;;;;;;5049388;28;20453;-64
2023/03/31 09:19:57;;;;;;;9.50;4.43;;;11.50;99.90;;;;;;5044170;28;20040;-64
2023/03/31 09:22:31;;;;;;;9.80;4.82;;;11.40;83.10;;;;;;5040312;28;20119;-64
2023/03/31 09:25:30;;;;;;;8.23;4.05;;;11.40;1.00;;;;;;5049330;28;20040;-64
2023/03/31 09:27:58;;;;;;;9.25;4.07;;;11.70;1.00;;;;;;5043790;28;20045;-63
2023/03/31 09:30:30;;;;;;;9.77;3.97;;;11.40;1.00;;;;;;5047570;28;20094;-64
2023/03/31 09:33:16;;;;;;;8.75;3.63;;;10.90;1.00;;;;;;5047931;28;20513;-64
2023/03/31 09:35:42;;;;;;;10.98;3.75;;;11.60;1.00;;;;;;5048457;28;20041;-64
2023/03/31 09:38:14;;;;;;;9.07;2.97;;;11.30;99.90;;;;;;5048022;28;20064;-64
2023/03/31 09:40:41;;;;;;;7.70;3.30;;;11.10;99.90;;;;;;5048886;28;20041;-63
2023/03/31 09:43:39;;;;;;;7.60;2.88;;;;;;;;;;5048905;28;20116;-64
2023/03/31 09:46:19;;;;;;;6.28;2.60;;;11.20;99.90;;;;;;5031590;28;20462;-64
2023/03/31 09:48:54;;;;;;;7.05;3.00;;;11.30;1.00;;;;;;5045243;28;20352;-64
2023/03/31 09:51:26;;;;;;;8.15;3.10;;;11.30;1.00;;;;;;5046905;28;20402;-64
2023/03/31 09:53:57;;;;;;;7.18;2.83;;;11.80;1.00;;;;;;5047495;28;20436;-64
2023/03/31 09:56:41;;;;;;;9.05;3.42;;;11.90;1.00;;;;;;5048831;28;20083;-64
2023/03/31 09:59:16;;;;;;;7.40;3.17;;;11.10;99.90;;;;;;5048671;28;20037;-64
2023/03/31 10:01:48;;;;;;;8.57;3.50;;;11.20;99.90;;;;;;5048749;28;20128;-63
2023/03/31 10:04:26;;;;;;;8.98;3.70;;;10.90;1.00;;;;;;5049191;28;20422;-64
2023/03/31 10:06:54;;;;;;;23.25;4.45;;;11.90;1.00;;;;;;5048147;28;20055;-64
2023/03/31 10:09:25;;;;;;;12.82;4.13;;;11.60;1.00;;;;;;5047747;28;20052;-64
2023/03/31 10:11:56;;;;;;;8.40;3.80;;;11.00;1.00;;;;;;5048256;28;20033;-64
2023/03/31 10:14:47;;;;;;;12.05;4.78;;;11.10;1.00;;;;;;5046275;28;20470;-64
2023/03/31 10:17:15;;;;;;;8.32;3.47;;;11.00;1.00;;;;;;5041484;28;20053;-64
2023/03/31 10:19:51;;;;;;;8.13;3.55;;;10.80;1.00;;;;;;5041135;28;20104;-64
2023/03/31 10:22:20;;;;;;;8.63;4.32;;;11.00;1.00;;;;;;5038126;28;20057;-64
2023/03/31 10:24:47;;;;;;;11.05;4.20;;;11.40;1.00;;;;;;5039824;28;20045;-64
2023/03/31 10:27:24;;;;;;;11.80;4.30;;;11.10;99.90;;;;;;5041754;28;20049;-64
2023/03/31 10:29:55;;;;;;;13.15;5.43;;;11.60;99.90;;;;;;5037925;28;20048;-64
2023/03/31 10:32:27;;;;;;;9.55;4.55;;;11.40;99.90;;;;;;5040399;28;20061;-64
2023/03/31 10:34:55;;;;;;;9.68;5.07;;;11.40;99.90;;;;;;5047841;28;20105;-65
2023/03/31 10:37:25;;;;;;;9.82;4.10;;;12.10;99.90;;;;;;5052246;28;20044;-64
2023/03/31 10:40:19;;;;;;;11.32;4.60;;;12.30;99.90;;;;;;5051521;28;20170;-64
2023/03/31 10:42:46;;;;;;;12.77;4.78;;;;;;;;;;5048975;28;20045;-65
2023/03/31 10:45:26;;;;;;;12.10;4.63;;;12.50;99.90;;;;;;5052347;28;20049;-64
2023/03/31 10:47:54;;;;;;;13.10;3.90;;;12.20;99.90;;;;;;5046392;28;20041;-64
2023/03/31 10:50:30;;;;;;;12.07;4.70;;;12.60;99.90;;;;;;5043213;28;20037;-64
2023/03/31 10:53:13;;;;;;;9.38;4.00;;;12.80;99.90;;;;;;5043663;28;20458;-64
2023/03/31 10:56:04;;;;;;;10.73;3.60;;;12.50;99.90;;;;;;5052050;28;20102;-64
2023/03/31 10:58:37;;;;;;;10.05;3.83;;;12.60;99.90;;;;;;5031060;28;20041;-64
2023/03/31 11:01:21;;;;;;;9.77;4.10;;;12.80;1.00;;;;;;5051648;28;20521;-64
2023/03/31 11:04:12;;;;;;;7.63;3.63;;;13.00;1.00;;;;;;5044053;28;20040;-64
2023/03/31 11:07:09;;;;;;;14.68;4.93;;;12.50;1.00;;;;;;5051630;28;20037;-66
2023/03/31 11:09:53;;;;;;;9.90;3.70;;;12.50;1.00;;;;;;5049426;28;20383;-65
2023/03/31 11:13:00;;;;;;;10.85;3.65;;;13.00;99.90;;;;;;5050152;28;20094;-66
2023/03/31 11:15:50;;;;;;;14.02;4.47;;;13.50;99.90;;;;;;5049172;28;20102;-66
2023/03/31 11:18:47;;;;;;;11.52;3.95;;;12.70;99.90;;;;;;5050509;28;20033;-66
2023/03/31 11:21:23;;;;;;;11.32;3.75;;;13.30;99.90;;;;;;4986414;28;20050;-66
2023/03/31 11:24:15;;;;;;;13.65;3.30;;;13.00;99.90;;;;;;5051027;28;20068;-66
2023/03/31 11:26:57;;;;;;;9.00;3.38;;;13.50;99.90;;;;;;5051194;28;20048;-66
2023/03/31 11:29:29;;;;;;;9.05;2.92;;;13.70;1.00;;;;;;5051090;28;20525;-67
2023/03/31 11:32:15;;;;;;;7.18;2.90;;;13.50;99.90;;;;;;5050777;28;20175;-66
2023/03/31 11:35:06;;;;;;;6.95;1.98;;;13.60;99.90;;;;;;5051224;28;20047;-66
2023/03/31 11:38:01;;;;;;;9.98;2.40;;;13.00;99.90;;;;;;5048153;28;20051;-66
2023/03/31 11:40:51;;;;;;;9.38;2.75;;;13.60;99.90;;;;;;5050821;28;20406;-67
2023/03/31 11:43:25;;;;;;;8.73;2.58;;;13.50;99.90;;;;;;5033095;28;20503;-66
2023/03/31 11:46:12;;;;;;;7.25;2.72;;;13.10;99.90;;;;;;5050870;28;20434;-66
2023/03/31 11:48:50;;;;;;;7.90;2.90;;;12.40;99.90;;;;;;5051003;28;20099;-67
2023/03/31 11:51:27;;;;;;;10.70;2.70;;;12.70;1.00;;;;;;5044056;28;20059;-66
2023/03/31 11:53:56;;;;;;;8.52;3.33;;;12.70;33.30;;;;;;5043289;28;20064;-67
2023/03/31 11:56:25;;;;;;;9.35;2.70;;;12.70;99.90;;;;;;5058392;22;20045;-73
2023/03/31 11:58:55;;;;;;;11.13;3.33;;;12.60;99.90;;;;;;5021650;28;20153;-75
2023/03/31 12:01:32;;;;;;;9.23;2.80;;;12.80;97.50;;;;;;5020459;28;20049;-76
2023/03/31 12:04:13;;;;;;;10.35;2.75;;;12.90;1.80;;;;;;5021551;28;20356;-74
2023/03/31 12:06:41;;;;;;;9.07;3.08;;;12.40;65.80;;;;;;5022510;28;20132;-74
2023/03/31 12:09:13;;;;;;;11.40;3.53;;;11.70;99.90;;;;;;5013965;28;20137;-73
2023/03/31 12:11:54;;;;;;;10.23;3.28;;;12.20;99.90;;;;;;5019746;28;20125;-74
2023/03/31 12:14:48;;;;;;;8.65;2.83;;;11.60;1.00;;;;;;5027928;28;20040;-72
2023/03/31 12:17:21;;;;;;;10.82;3.00;;;12.50;1.00;;;;;;5006103;28;20045;-74
2023/03/31 12:20:09;;;;;;;11.95;3.55;;;11.90;10.40;;;;;;5025617;28;20042;-74
2023/03/31 12:22:42;;;;;;;15.93;3.90;;;11.60;99.90;;;;;;5011365;28;20056;-77
2023/03/31 12:25:15;;;;;;;11.90;3.53;;;11.70;1.00;;;;;;5004596;28;20064;-74
2023/03/31 12:27:43;;;;;;;11.88;4.30;;;11.40;99.90;;;;;;5024918;28;20038;-73
2023/03/31 12:30:17;;;;;;;13.77;4.25;;;11.00;99.90;;;;;;5025534;28;20426;-78
2023/03/31 12:32:52;;;;;;;16.67;4.90;;;11.60;99.90;;;;;;5027494;28;20079;-76
2023/03/31 12:35:22;;;;;;;17.55;5.30;;;11.40;99.90;;;;;;5023536;28;20515;-77
2023/03/31 12:38:04;;;;;;;12.10;4.90;;;11.70;1.00;;;;;;5028418;28;20033;-76
2023/03/31 12:40:47;;;;;;;11.57;4.75;;;11.60;1.00;;;;;;5028109;28;20041;-77
2023/03/31 12:43:32;;;;;;;14.00;4.47;;;;;;;;;;5012466;28;20456;-76
2023/03/31 12:46:27;;;;;;;15.77;5.35;;;11.50;1.00;;;;;;5028685;28;20411;-76
2023/03/31 12:49:21;;;;;;;13.77;5.65;;;12.10;99.90;;;;;;5028885;28;20400;-75
2023/03/31 12:51:56;;;;;;;20.43;6.40;;;11.40;99.90;;;;;;5027578;28;20049;-75
2023/03/31 12:55:01;;;;;;;10.82;4.05;;;11.30;1.00;;;;;;5028527;28;20698;-75
2023/03/31 12:57:27;;;;;;;17.95;4.53;;;11.70;1.00;;;;;;5026509;28;20045;-74
2023/03/31 13:00:21;;;;;;;15.98;5.07;;;11.90;99.90;;;;;;5020796;28;20033;-74
2023/03/31 13:02:47;;;;;;;11.30;3.60;;;;;;;;;;5017944;28;20679;-74
2023/03/31 13:05:35;;;;;;;15.18;4.50;;;11.20;1.00;;;;;;5028707;28;20034;-74
2023/03/31 13:08:03;;;;;;;9.32;3.67;;;11.40;1.00;;;;;;5008084;28;20038;-74
2023/03/31 13:10:30;;;;;;;15.63;4.03;;;12.00;99.90;;;;;;5028225;28;20048;-74
2023/03/31 13:13:02;;;;;;;12.32;3.38;;;11.50;99.90;;;;;;5003282;28;20045;-73
2023/03/31 13:15:29;;;;;;;10.73;3.40;;;12.00;99.90;;;;;;5041331;28;20091;-74
2023/03/31 13:18:00;;;;;;;12.63;3.10;;;12.00;99.90;;;;;;5021512;28;20395;-73